joomla templates top joomla templates template joomla

King Air Abend

Wetterbeurteilung mit Hilfe Webcam und ATIS

 

Webcam 1Webcam 2

(Zum vergrößern auf das Bild klicken)

Notam

C1109/18 - ATIS NOT AVBL. 24 APR 14:36 2018 UNTIL 24 JUL 23:59 2018 ESTIMATED. CREATED: 24 APR 14:43 2018

C0137/18 - COBURG AFIS AND INFO FREQ CHANGED: NEW FREQ 128.680. 15 FEB 00:01 2018 UNTIL PERM. CREATED: 19 JAN 11:19 2018

C0132/18 - DIRECTION FINDING STATION (VDF) COMPLETELY WITHDRAWN. 15 FEB 00:01 2018 UNTIL PERM. CREATED: 19 JAN 10:58 2018

C3641/14 - CUSTOMS AVBL PPR, TEL 0049 9561 92098. 13 NOV 14:46 2014 UNTIL PERM. CREATED: 13 NOV 14:47 2014

Wetteranzeige

Aktuelles Platzwetter Stand 21.05.2018 19:01Z

AvgMinMax
Windrichtung9060110Deg
Windgeschwindigkeit538kt
Sichtweite>10000m
Temperatur19°C
Taupunkt/////°C
Feuchte/////%
QNH1014.1hPa
QFE960.7hPa
WolkenSKC

Aerodrome Terminal Information Service (ATIS) Coburg

METAR
EDQC 211850Z AUTO 09006KT CAVOK 20/// Q1014=

METAR und TAF der Umgebung

[Quelle: ADDS]
METAR
EDDF 211850Z 07006KT 9999 FEW060CB BKN300 23/10 Q1011 NOSIG =
EDDN 211850Z 11006KT CAVOK 18/09 Q1013 NOSIG =
EDDE 211850Z 07007KT CAVOK 18/09 Q1015 NOSIG =
TAF
EDDF 211700Z 2118/2224 09009KT CAVOK BECMG 2118/2121 05004KT PROB40 TEMPO 2211/2218 23012KT TSRA SCT050CB PROB30 TEMPO 2213/2217 27015G30KT TSRAGR BKN040CB =
EDDN 211700Z 2118/2218 08005KT CAVOK PROB30 TEMPO 2118/2120 TSRA SCT040CB =
EDDE 211700Z 2118/2218 08010KT CAVOK BECMG 2118/2121 07005KT BECMG 2121/2124 VRB03KT BECMG 2206/2209 08005KT =

Wetterverlauf

Windvorhersage

Verkehrslandeplatz Coburg Brandensteinsebene
Tower
Zur Brandensteinsebene
96450 Coburg

 

Telefon +49 (0) 95 61 / 9 20 98
Telefax +49 (0) 95 61 / 9 20 06
EMail tower@vlp-coburg.de